sensor_id;sensor_type;location;lat;lon;timestamp;P1;durP1;ratioP1;P2;durP2;ratioP2
5734;SDS011;2892;47.592;7.688;2024-03-02T00:00:50;9.40;;;3.73;;
5734;SDS011;2892;47.592;7.688;2024-03-02T00:03:16;5.77;;;3.97;;
5734;SDS011;2892;47.592;7.688;2024-03-02T00:05:42;6.60;;;4.80;;
5734;SDS011;2892;47.592;7.688;2024-03-02T00:08:08;8.53;;;4.20;;
5734;SDS011;2892;47.592;7.688;2024-03-02T00:10:36;5.73;;;3.80;;
5734;SDS011;2892;47.592;7.688;2024-03-02T00:13:03;10.97;;;4.33;;
5734;SDS011;2892;47.592;7.688;2024-03-02T00:18:18;5.43;;;3.53;;
5734;SDS011;2892;47.592;7.688;2024-03-02T00:20:46;9.57;;;4.73;;
5734;SDS011;2892;47.592;7.688;2024-03-02T00:23:14;4.40;;;3.57;;
5734;SDS011;2892;47.592;7.688;2024-03-02T00:25:41;12.43;;;4.43;;
5734;SDS011;2892;47.592;7.688;2024-03-02T00:28:11;7.70;;;4.10;;
5734;SDS011;2892;47.592;7.688;2024-03-02T00:33:16;7.97;;;4.87;;
5734;SDS011;2892;47.592;7.688;2024-03-02T00:35:44;8.93;;;5.00;;
5734;SDS011;2892;47.592;7.688;2024-03-02T00:38:09;4.80;;;3.07;;
5734;SDS011;2892;47.592;7.688;2024-03-02T00:40:35;14.50;;;4.37;;
5734;SDS011;2892;47.592;7.688;2024-03-02T00:43:01;6.00;;;4.57;;
5734;SDS011;2892;47.592;7.688;2024-03-02T00:45:27;6.37;;;4.60;;
5734;SDS011;2892;47.592;7.688;2024-03-02T00:47:52;4.57;;;2.70;;
5734;SDS011;2892;47.592;7.688;2024-03-02T00:50:18;6.03;;;4.17;;
5734;SDS011;2892;47.592;7.688;2024-03-02T00:52:44;9.33;;;3.60;;
5734;SDS011;2892;47.592;7.688;2024-03-02T00:55:11;7.30;;;4.93;;
5734;SDS011;2892;47.592;7.688;2024-03-02T00:57:37;7.47;;;4.97;;
5734;SDS011;2892;47.592;7.688;2024-03-02T01:00:03;8.17;;;4.00;;
5734;SDS011;2892;47.592;7.688;2024-03-02T01:02:29;11.03;;;6.40;;
5734;SDS011;2892;47.592;7.688;2024-03-02T01:04:54;7.60;;;4.60;;
5734;SDS011;2892;47.592;7.688;2024-03-02T01:07:20;7.00;;;4.40;;
5734;SDS011;2892;47.592;7.688;2024-03-02T01:09:45;12.83;;;4.30;;
5734;SDS011;2892;47.592;7.688;2024-03-02T01:12:11;6.20;;;4.13;;
5734;SDS011;2892;47.592;7.688;2024-03-02T01:14:36;8.03;;;4.60;;
5734;SDS011;2892;47.592;7.688;2024-03-02T01:17:02;6.83;;;3.43;;
5734;SDS011;2892;47.592;7.688;2024-03-02T01:19:27;3.90;;;3.40;;
5734;SDS011;2892;47.592;7.688;2024-03-02T01:21:53;6.17;;;3.53;;
5734;SDS011;2892;47.592;7.688;2024-03-02T01:24:18;5.83;;;3.77;;
5734;SDS011;2892;47.592;7.688;2024-03-02T01:26:43;7.53;;;4.00;;
5734;SDS011;2892;47.592;7.688;2024-03-02T01:29:09;4.10;;;3.63;;
5734;SDS011;2892;47.592;7.688;2024-03-02T01:31:34;8.63;;;4.83;;
5734;SDS011;2892;47.592;7.688;2024-03-02T01:34:00;8.47;;;5.40;;
5734;SDS011;2892;47.592;7.688;2024-03-02T01:36:25;12.37;;;5.50;;
5734;SDS011;2892;47.592;7.688;2024-03-02T01:38:51;16.10;;;4.93;;
5734;SDS011;2892;47.592;7.688;2024-03-02T01:41:16;6.43;;;4.73;;
5734;SDS011;2892;47.592;7.688;2024-03-02T01:43:42;6.40;;;4.47;;
5734;SDS011;2892;47.592;7.688;2024-03-02T01:46:07;20.73;;;5.43;;
5734;SDS011;2892;47.592;7.688;2024-03-02T01:48:33;7.10;;;4.43;;
5734;SDS011;2892;47.592;7.688;2024-03-02T01:50:58;10.03;;;4.97;;
5734;SDS011;2892;47.592;7.688;2024-03-02T01:53:24;10.23;;;4.83;;
5734;SDS011;2892;47.592;7.688;2024-03-02T01:55:49;9.33;;;4.50;;
5734;SDS011;2892;47.592;7.688;2024-03-02T01:58:16;8.00;;;4.70;;
5734;SDS011;2892;47.592;7.688;2024-03-02T02:00:41;6.53;;;3.60;;
5734;SDS011;2892;47.592;7.688;2024-03-02T02:03:07;6.57;;;3.90;;
5734;SDS011;2892;47.592;7.688;2024-03-02T02:05:33;7.97;;;5.63;;
5734;SDS011;2892;47.592;7.688;2024-03-02T02:07:59;6.83;;;4.90;;
5734;SDS011;2892;47.592;7.688;2024-03-02T02:10:26;15.67;;;6.87;;
5734;SDS011;2892;47.592;7.688;2024-03-02T02:12:52;5.97;;;4.23;;
5734;SDS011;2892;47.592;7.688;2024-03-02T02:15:33;7.83;;;4.30;;
5734;SDS011;2892;47.592;7.688;2024-03-02T02:17:58;5.07;;;3.33;;
5734;SDS011;2892;47.592;7.688;2024-03-02T02:20:24;7.70;;;5.03;;
5734;SDS011;2892;47.592;7.688;2024-03-02T02:25:29;12.27;;;5.50;;
5734;SDS011;2892;47.592;7.688;2024-03-02T02:27:54;7.87;;;4.50;;
5734;SDS011;2892;47.592;7.688;2024-03-02T02:30:21;6.97;;;4.70;;
5734;SDS011;2892;47.592;7.688;2024-03-02T02:32:49;5.50;;;3.67;;
5734;SDS011;2892;47.592;7.688;2024-03-02T02:35:14;7.77;;;4.47;;
5734;SDS011;2892;47.592;7.688;2024-03-02T02:37:40;5.13;;;3.77;;
5734;SDS011;2892;47.592;7.688;2024-03-02T02:40:06;9.97;;;5.53;;
5734;SDS011;2892;47.592;7.688;2024-03-02T02:42:32;7.77;;;4.50;;
5734;SDS011;2892;47.592;7.688;2024-03-02T02:44:57;8.13;;;4.00;;
5734;SDS011;2892;47.592;7.688;2024-03-02T02:47:23;7.30;;;4.50;;
5734;SDS011;2892;47.592;7.688;2024-03-02T02:49:48;7.13;;;4.80;;
5734;SDS011;2892;47.592;7.688;2024-03-02T02:52:14;6.20;;;3.43;;
5734;SDS011;2892;47.592;7.688;2024-03-02T02:54:39;7.43;;;5.00;;
5734;SDS011;2892;47.592;7.688;2024-03-02T02:57:04;6.00;;;4.60;;
5734;SDS011;2892;47.592;7.688;2024-03-02T02:59:30;6.17;;;4.17;;
5734;SDS011;2892;47.592;7.688;2024-03-02T03:01:55;10.37;;;4.70;;
5734;SDS011;2892;47.592;7.688;2024-03-02T03:04:21;5.47;;;3.83;;
5734;SDS011;2892;47.592;7.688;2024-03-02T03:06:46;8.77;;;6.53;;
5734;SDS011;2892;47.592;7.688;2024-03-02T03:09:12;11.30;;;4.10;;
5734;SDS011;2892;47.592;7.688;2024-03-02T03:11:37;8.20;;;4.97;;
5734;SDS011;2892;47.592;7.688;2024-03-02T03:14:03;9.97;;;3.93;;
5734;SDS011;2892;47.592;7.688;2024-03-02T03:16:28;9.40;;;4.70;;
5734;SDS011;2892;47.592;7.688;2024-03-02T03:18:54;6.60;;;3.40;;
5734;SDS011;2892;47.592;7.688;2024-03-02T03:21:19;7.33;;;5.03;;
5734;SDS011;2892;47.592;7.688;2024-03-02T03:23:45;8.00;;;4.30;;
5734;SDS011;2892;47.592;7.688;2024-03-02T03:26:10;8.60;;;4.80;;
5734;SDS011;2892;47.592;7.688;2024-03-02T03:28:36;9.23;;;6.03;;
5734;SDS011;2892;47.592;7.688;2024-03-02T03:31:01;8.43;;;4.10;;
5734;SDS011;2892;47.592;7.688;2024-03-02T03:33:27;10.27;;;6.43;;
5734;SDS011;2892;47.592;7.688;2024-03-02T03:35:52;10.20;;;5.73;;
5734;SDS011;2892;47.592;7.688;2024-03-02T03:38:18;6.80;;;4.20;;
5734;SDS011;2892;47.592;7.688;2024-03-02T03:40:43;9.37;;;4.67;;
5734;SDS011;2892;47.592;7.688;2024-03-02T03:43:09;7.63;;;5.00;;
5734;SDS011;2892;47.592;7.688;2024-03-02T03:45:34;11.97;;;4.97;;
5734;SDS011;2892;47.592;7.688;2024-03-02T03:48:00;4.87;;;3.03;;
5734;SDS011;2892;47.592;7.688;2024-03-02T03:50:26;10.77;;;4.60;;
5734;SDS011;2892;47.592;7.688;2024-03-02T03:52:51;5.10;;;4.00;;
5734;SDS011;2892;47.592;7.688;2024-03-02T03:55:16;5.97;;;4.40;;
5734;SDS011;2892;47.592;7.688;2024-03-02T03:57:42;6.40;;;3.63;;
5734;SDS011;2892;47.592;7.688;2024-03-02T04:00:07;6.70;;;3.50;;
5734;SDS011;2892;47.592;7.688;2024-03-02T04:02:33;11.23;;;6.70;;
5734;SDS011;2892;47.592;7.688;2024-03-02T04:04:59;12.47;;;6.60;;
5734;SDS011;2892;47.592;7.688;2024-03-02T04:07:24;12.57;;;6.70;;
5734;SDS011;2892;47.592;7.688;2024-03-02T04:09:50;9.77;;;5.97;;
5734;SDS011;2892;47.592;7.688;2024-03-02T04:12:15;12.23;;;7.17;;
5734;SDS011;2892;47.592;7.688;2024-03-02T04:14:41;10.30;;;6.40;;
5734;SDS011;2892;47.592;7.688;2024-03-02T04:17:06;13.23;;;7.53;;
5734;SDS011;2892;47.592;7.688;2024-03-02T04:19:31;13.13;;;6.73;;
5734;SDS011;2892;47.592;7.688;2024-03-02T04:21:57;13.73;;;6.87;;
5734;SDS011;2892;47.592;7.688;2024-03-02T04:24:22;12.43;;;7.00;;
5734;SDS011;2892;47.592;7.688;2024-03-02T04:26:48;10.10;;;6.10;;
5734;SDS011;2892;47.592;7.688;2024-03-02T04:29:13;15.33;;;7.47;;
5734;SDS011;2892;47.592;7.688;2024-03-02T04:31:39;12.03;;;6.73;;
5734;SDS011;2892;47.592;7.688;2024-03-02T04:34:04;16.00;;;9.63;;
5734;SDS011;2892;47.592;7.688;2024-03-02T04:36:30;15.40;;;8.63;;
5734;SDS011;2892;47.592;7.688;2024-03-02T04:38:55;12.33;;;7.03;;
5734;SDS011;2892;47.592;7.688;2024-03-02T04:41:21;10.17;;;7.03;;
5734;SDS011;2892;47.592;7.688;2024-03-02T04:43:46;13.73;;;7.73;;
5734;SDS011;2892;47.592;7.688;2024-03-02T04:46:12;12.00;;;7.33;;
5734;SDS011;2892;47.592;7.688;2024-03-02T04:48:37;18.13;;;8.47;;
5734;SDS011;2892;47.592;7.688;2024-03-02T04:51:03;13.20;;;7.27;;
5734;SDS011;2892;47.592;7.688;2024-03-02T04:53:28;14.03;;;7.03;;
5734;SDS011;2892;47.592;7.688;2024-03-02T04:55:54;10.70;;;6.70;;
5734;SDS011;2892;47.592;7.688;2024-03-02T04:58:19;13.97;;;7.60;;
5734;SDS011;2892;47.592;7.688;2024-03-02T05:00:45;9.80;;;5.90;;
5734;SDS011;2892;47.592;7.688;2024-03-02T05:03:10;13.20;;;7.10;;
5734;SDS011;2892;47.592;7.688;2024-03-02T05:05:36;9.87;;;7.50;;
5734;SDS011;2892;47.592;7.688;2024-03-02T05:08:01;10.87;;;6.50;;
5734;SDS011;2892;47.592;7.688;2024-03-02T05:10:27;12.17;;;6.87;;
5734;SDS011;2892;47.592;7.688;2024-03-02T05:12:52;11.57;;;6.50;;
5734;SDS011;2892;47.592;7.688;2024-03-02T05:15:18;11.90;;;6.63;;
5734;SDS011;2892;47.592;7.688;2024-03-02T05:17:43;14.13;;;6.00;;
5734;SDS011;2892;47.592;7.688;2024-03-02T05:20:09;13.30;;;7.10;;
5734;SDS011;2892;47.592;7.688;2024-03-02T05:22:35;12.30;;;7.00;;
5734;SDS011;2892;47.592;7.688;2024-03-02T05:25:02;9.60;;;6.90;;
5734;SDS011;2892;47.592;7.688;2024-03-02T05:27:29;8.80;;;5.63;;
5734;SDS011;2892;47.592;7.688;2024-03-02T05:29:54;11.33;;;5.77;;
5734;SDS011;2892;47.592;7.688;2024-03-02T05:32:20;10.23;;;5.60;;
5734;SDS011;2892;47.592;7.688;2024-03-02T05:34:46;10.50;;;5.63;;
5734;SDS011;2892;47.592;7.688;2024-03-02T05:37:11;11.83;;;6.23;;
5734;SDS011;2892;47.592;7.688;2024-03-02T05:39:37;12.03;;;5.60;;
5734;SDS011;2892;47.592;7.688;2024-03-02T05:42:02;10.10;;;6.67;;
5734;SDS011;2892;47.592;7.688;2024-03-02T05:44:28;10.43;;;6.77;;
5734;SDS011;2892;47.592;7.688;2024-03-02T05:46:54;13.77;;;6.60;;
5734;SDS011;2892;47.592;7.688;2024-03-02T05:49:19;12.67;;;6.90;;
5734;SDS011;2892;47.592;7.688;2024-03-02T05:51:45;11.63;;;6.00;;
5734;SDS011;2892;47.592;7.688;2024-03-02T05:54:10;12.23;;;6.10;;
5734;SDS011;2892;47.592;7.688;2024-03-02T05:56:36;12.53;;;6.10;;
5734;SDS011;2892;47.592;7.688;2024-03-02T05:59:01;11.13;;;6.27;;
5734;SDS011;2892;47.592;7.688;2024-03-02T06:01:27;10.53;;;6.63;;
5734;SDS011;2892;47.592;7.688;2024-03-02T06:03:52;15.80;;;7.73;;
5734;SDS011;2892;47.592;7.688;2024-03-02T06:06:18;12.93;;;6.63;;
5734;SDS011;2892;47.592;7.688;2024-03-02T06:08:43;10.00;;;5.70;;
5734;SDS011;2892;47.592;7.688;2024-03-02T06:11:09;8.43;;;5.60;;
5734;SDS011;2892;47.592;7.688;2024-03-02T06:13:34;9.60;;;6.17;;
5734;SDS011;2892;47.592;7.688;2024-03-02T06:16:00;10.60;;;6.10;;
5734;SDS011;2892;47.592;7.688;2024-03-02T06:18:25;13.03;;;6.90;;
5734;SDS011;2892;47.592;7.688;2024-03-02T06:20:51;10.27;;;5.60;;
5734;SDS011;2892;47.592;7.688;2024-03-02T06:23:16;10.47;;;6.23;;
5734;SDS011;2892;47.592;7.688;2024-03-02T06:25:42;12.17;;;6.97;;
5734;SDS011;2892;47.592;7.688;2024-03-02T06:28:07;11.50;;;6.87;;
5734;SDS011;2892;47.592;7.688;2024-03-02T06:30:33;13.93;;;5.97;;
5734;SDS011;2892;47.592;7.688;2024-03-02T06:32:58;17.23;;;6.63;;
5734;SDS011;2892;47.592;7.688;2024-03-02T06:35:24;10.43;;;6.40;;
5734;SDS011;2892;47.592;7.688;2024-03-02T06:37:49;12.10;;;6.87;;
5734;SDS011;2892;47.592;7.688;2024-03-02T06:40:14;8.23;;;5.00;;
5734;SDS011;2892;47.592;7.688;2024-03-02T06:42:40;9.90;;;6.40;;
5734;SDS011;2892;47.592;7.688;2024-03-02T06:45:06;12.23;;;7.23;;
5734;SDS011;2892;47.592;7.688;2024-03-02T06:47:31;10.97;;;6.13;;
5734;SDS011;2892;47.592;7.688;2024-03-02T06:49:57;11.30;;;7.13;;
5734;SDS011;2892;47.592;7.688;2024-03-02T06:52:22;9.90;;;6.70;;
5734;SDS011;2892;47.592;7.688;2024-03-02T06:54:48;11.07;;;6.73;;
5734;SDS011;2892;47.592;7.688;2024-03-02T06:57:13;13.20;;;6.30;;
5734;SDS011;2892;47.592;7.688;2024-03-02T06:59:39;9.60;;;6.33;;
5734;SDS011;2892;47.592;7.688;2024-03-02T07:02:04;11.83;;;6.90;;
5734;SDS011;2892;47.592;7.688;2024-03-02T07:04:30;10.37;;;6.47;;
5734;SDS011;2892;47.592;7.688;2024-03-02T07:06:55;11.33;;;5.87;;
5734;SDS011;2892;47.592;7.688;2024-03-02T07:09:21;11.03;;;6.40;;
5734;SDS011;2892;47.592;7.688;2024-03-02T07:11:46;17.40;;;7.23;;
5734;SDS011;2892;47.592;7.688;2024-03-02T07:14:11;11.83;;;6.37;;
5734;SDS011;2892;47.592;7.688;2024-03-02T07:16:37;10.40;;;5.90;;
5734;SDS011;2892;47.592;7.688;2024-03-02T07:19:03;12.13;;;5.87;;
5734;SDS011;2892;47.592;7.688;2024-03-02T07:21:28;13.67;;;6.00;;
5734;SDS011;2892;47.592;7.688;2024-03-02T07:23:53;14.67;;;5.97;;
5734;SDS011;2892;47.592;7.688;2024-03-02T07:26:19;12.63;;;6.43;;
5734;SDS011;2892;47.592;7.688;2024-03-02T07:28:46;12.57;;;7.03;;
5734;SDS011;2892;47.592;7.688;2024-03-02T07:31:11;17.90;;;10.93;;
5734;SDS011;2892;47.592;7.688;2024-03-02T07:33:37;14.30;;;9.23;;
5734;SDS011;2892;47.592;7.688;2024-03-02T07:36:02;15.30;;;10.47;;
5734;SDS011;2892;47.592;7.688;2024-03-02T07:38:29;18.73;;;10.90;;
5734;SDS011;2892;47.592;7.688;2024-03-02T07:40:55;18.03;;;11.50;;
5734;SDS011;2892;47.592;7.688;2024-03-02T07:43:21;15.03;;;10.33;;
5734;SDS011;2892;47.592;7.688;2024-03-02T07:45:47;16.33;;;10.10;;
5734;SDS011;2892;47.592;7.688;2024-03-02T07:48:12;16.80;;;10.63;;
5734;SDS011;2892;47.592;7.688;2024-03-02T07:50:39;17.83;;;10.43;;
5734;SDS011;2892;47.592;7.688;2024-03-02T07:53:04;19.93;;;11.67;;
5734;SDS011;2892;47.592;7.688;2024-03-02T07:55:30;20.20;;;11.27;;
5734;SDS011;2892;47.592;7.688;2024-03-02T07:57:56;14.63;;;9.40;;
5734;SDS011;2892;47.592;7.688;2024-03-02T08:00:22;17.83;;;9.87;;
5734;SDS011;2892;47.592;7.688;2024-03-02T08:02:48;15.50;;;10.70;;
5734;SDS011;2892;47.592;7.688;2024-03-02T08:05:15;16.87;;;9.33;;
5734;SDS011;2892;47.592;7.688;2024-03-02T08:07:40;18.23;;;10.00;;
5734;SDS011;2892;47.592;7.688;2024-03-02T08:10:06;17.10;;;10.10;;
5734;SDS011;2892;47.592;7.688;2024-03-02T08:12:32;14.50;;;9.10;;
5734;SDS011;2892;47.592;7.688;2024-03-02T08:14:57;15.47;;;9.47;;
5734;SDS011;2892;47.592;7.688;2024-03-02T08:17:23;17.80;;;9.53;;
5734;SDS011;2892;47.592;7.688;2024-03-02T08:19:48;14.67;;;8.90;;
5734;SDS011;2892;47.592;7.688;2024-03-02T08:22:14;15.00;;;9.90;;
5734;SDS011;2892;47.592;7.688;2024-03-02T08:24:40;14.83;;;9.73;;
5734;SDS011;2892;47.592;7.688;2024-03-02T08:27:06;13.37;;;9.03;;
5734;SDS011;2892;47.592;7.688;2024-03-02T08:29:31;16.77;;;9.27;;
5734;SDS011;2892;47.592;7.688;2024-03-02T08:31:57;14.17;;;8.40;;
5734;SDS011;2892;47.592;7.688;2024-03-02T08:34:22;17.37;;;10.30;;
5734;SDS011;2892;47.592;7.688;2024-03-02T08:36:48;13.07;;;9.07;;
5734;SDS011;2892;47.592;7.688;2024-03-02T08:39:14;18.80;;;9.70;;
5734;SDS011;2892;47.592;7.688;2024-03-02T08:41:39;15.10;;;9.30;;
5734;SDS011;2892;47.592;7.688;2024-03-02T08:44:05;15.27;;;8.50;;
5734;SDS011;2892;47.592;7.688;2024-03-02T08:46:30;15.77;;;9.47;;
5734;SDS011;2892;47.592;7.688;2024-03-02T08:48:56;14.17;;;9.43;;
5734;SDS011;2892;47.592;7.688;2024-03-02T08:51:21;14.37;;;8.50;;
5734;SDS011;2892;47.592;7.688;2024-03-02T08:53:47;16.97;;;9.57;;
5734;SDS011;2892;47.592;7.688;2024-03-02T08:56:12;15.00;;;8.17;;
5734;SDS011;2892;47.592;7.688;2024-03-02T08:58:38;16.20;;;9.30;;
5734;SDS011;2892;47.592;7.688;2024-03-02T09:01:03;12.67;;;8.50;;
5734;SDS011;2892;47.592;7.688;2024-03-02T09:03:29;12.57;;;8.23;;
5734;SDS011;2892;47.592;7.688;2024-03-02T09:05:54;19.33;;;10.27;;
5734;SDS011;2892;47.592;7.688;2024-03-02T09:08:20;13.83;;;7.57;;
5734;SDS011;2892;47.592;7.688;2024-03-02T09:10:46;16.37;;;8.10;;
5734;SDS011;2892;47.592;7.688;2024-03-02T09:13:11;13.10;;;8.40;;
5734;SDS011;2892;47.592;7.688;2024-03-02T09:15:37;14.60;;;8.50;;
5734;SDS011;2892;47.592;7.688;2024-03-02T09:18:03;13.00;;;7.67;;
5734;SDS011;2892;47.592;7.688;2024-03-02T09:20:29;14.50;;;8.73;;
5734;SDS011;2892;47.592;7.688;2024-03-02T09:22:54;17.67;;;7.63;;
5734;SDS011;2892;47.592;7.688;2024-03-02T09:25:19;12.77;;;7.63;;
5734;SDS011;2892;47.592;7.688;2024-03-02T09:27:45;11.57;;;7.20;;
5734;SDS011;2892;47.592;7.688;2024-03-02T09:30:11;7.00;;;4.77;;
5734;SDS011;2892;47.592;7.688;2024-03-02T09:32:37;13.53;;;6.90;;
5734;SDS011;2892;47.592;7.688;2024-03-02T09:35:02;9.03;;;6.10;;
5734;SDS011;2892;47.592;7.688;2024-03-02T09:37:28;9.10;;;5.90;;
5734;SDS011;2892;47.592;7.688;2024-03-02T09:39:54;8.70;;;5.30;;
5734;SDS011;2892;47.592;7.688;2024-03-02T09:42:19;8.90;;;5.97;;
5734;SDS011;2892;47.592;7.688;2024-03-02T09:44:45;7.80;;;4.73;;
5734;SDS011;2892;47.592;7.688;2024-03-02T09:47:12;9.07;;;4.60;;
5734;SDS011;2892;47.592;7.688;2024-03-02T09:49:38;9.83;;;5.37;;
5734;SDS011;2892;47.592;7.688;2024-03-02T09:52:04;8.90;;;5.33;;
5734;SDS011;2892;47.592;7.688;2024-03-02T09:54:30;9.33;;;5.40;;
5734;SDS011;2892;47.592;7.688;2024-03-02T09:56:56;9.30;;;6.70;;
5734;SDS011;2892;47.592;7.688;2024-03-02T09:59:24;8.80;;;5.30;;
5734;SDS011;2892;47.592;7.688;2024-03-02T10:01:55;8.83;;;5.57;;
5734;SDS011;2892;47.592;7.688;2024-03-02T10:04:21;9.50;;;5.47;;
5734;SDS011;2892;47.592;7.688;2024-03-02T10:06:48;7.43;;;4.70;;
5734;SDS011;2892;47.592;7.688;2024-03-02T10:09:18;8.00;;;4.97;;
5734;SDS011;2892;47.592;7.688;2024-03-02T10:11:52;7.40;;;4.07;;
5734;SDS011;2892;47.592;7.688;2024-03-02T10:14:17;6.63;;;4.73;;
5734;SDS011;2892;47.592;7.688;2024-03-02T10:16:43;5.30;;;3.93;;
5734;SDS011;2892;47.592;7.688;2024-03-02T10:21:45;5.80;;;4.10;;
5734;SDS011;2892;47.592;7.688;2024-03-02T10:24:12;10.90;;;4.50;;
5734;SDS011;2892;47.592;7.688;2024-03-02T10:26:37;7.30;;;4.23;;
5734;SDS011;2892;47.592;7.688;2024-03-02T10:29:03;9.43;;;3.80;;
5734;SDS011;2892;47.592;7.688;2024-03-02T10:31:29;4.53;;;3.53;;
5734;SDS011;2892;47.592;7.688;2024-03-02T10:33:55;5.37;;;3.30;;
5734;SDS011;2892;47.592;7.688;2024-03-02T10:36:20;6.00;;;3.93;;
5734;SDS011;2892;47.592;7.688;2024-03-02T10:38:46;5.50;;;3.67;;
5734;SDS011;2892;47.592;7.688;2024-03-02T10:41:12;6.13;;;3.60;;
5734;SDS011;2892;47.592;7.688;2024-03-02T10:43:41;5.30;;;3.23;;
5734;SDS011;2892;47.592;7.688;2024-03-02T10:46:07;4.80;;;3.40;;
5734;SDS011;2892;47.592;7.688;2024-03-02T10:48:33;5.30;;;3.50;;
5734;SDS011;2892;47.592;7.688;2024-03-02T10:51:01;7.43;;;3.40;;
5734;SDS011;2892;47.592;7.688;2024-03-02T10:53:27;8.47;;;3.30;;
5734;SDS011;2892;47.592;7.688;2024-03-02T10:55:53;4.07;;;3.17;;
5734;SDS011;2892;47.592;7.688;2024-03-02T10:58:22;4.17;;;3.23;;
5734;SDS011;2892;47.592;7.688;2024-03-02T11:00:55;4.70;;;3.20;;
5734;SDS011;2892;47.592;7.688;2024-03-02T11:03:21;5.07;;;3.00;;
5734;SDS011;2892;47.592;7.688;2024-03-02T11:05:46;6.60;;;2.90;;
5734;SDS011;2892;47.592;7.688;2024-03-02T11:08:13;6.83;;;3.30;;
5734;SDS011;2892;47.592;7.688;2024-03-02T11:13:11;6.03;;;2.90;;
5734;SDS011;2892;47.592;7.688;2024-03-02T11:15:37;4.13;;;2.90;;
5734;SDS011;2892;47.592;7.688;2024-03-02T11:18:05;4.60;;;2.60;;
5734;SDS011;2892;47.592;7.688;2024-03-02T11:20:32;7.70;;;2.50;;
5734;SDS011;2892;47.592;7.688;2024-03-02T11:22:58;4.03;;;2.60;;
5734;SDS011;2892;47.592;7.688;2024-03-02T11:25:31;3.10;;;1.90;;
5734;SDS011;2892;47.592;7.688;2024-03-02T11:28:05;4.23;;;2.40;;
5734;SDS011;2892;47.592;7.688;2024-03-02T11:35:26;3.83;;;2.57;;
5734;SDS011;2892;47.592;7.688;2024-03-02T11:37:52;5.83;;;2.40;;
5734;SDS011;2892;47.592;7.688;2024-03-02T11:40:21;2.90;;;2.33;;
5734;SDS011;2892;47.592;7.688;2024-03-02T11:42:47;4.33;;;2.90;;
5734;SDS011;2892;47.592;7.688;2024-03-02T11:45:16;2.93;;;2.53;;
5734;SDS011;2892;47.592;7.688;2024-03-02T11:47:42;2.87;;;2.40;;
5734;SDS011;2892;47.592;7.688;2024-03-02T11:50:14;2.23;;;1.93;;
5734;SDS011;2892;47.592;7.688;2024-03-02T11:52:40;6.70;;;2.13;;
5734;SDS011;2892;47.592;7.688;2024-03-02T11:55:07;3.13;;;2.83;;
5734;SDS011;2892;47.592;7.688;2024-03-02T11:57:34;4.53;;;2.60;;
5734;SDS011;2892;47.592;7.688;2024-03-02T12:00:00;3.60;;;2.77;;
5734;SDS011;2892;47.592;7.688;2024-03-02T12:02:26;2.77;;;2.20;;
5734;SDS011;2892;47.592;7.688;2024-03-02T12:04:51;13.10;;;2.10;;
5734;SDS011;2892;47.592;7.688;2024-03-02T12:07:19;3.43;;;2.07;;
5734;SDS011;2892;47.592;7.688;2024-03-02T12:09:45;3.53;;;2.47;;
5734;SDS011;2892;47.592;7.688;2024-03-02T12:12:10;2.40;;;1.77;;
5734;SDS011;2892;47.592;7.688;2024-03-02T12:14:36;2.53;;;1.87;;
5734;SDS011;2892;47.592;7.688;2024-03-02T12:17:03;2.30;;;1.80;;
5734;SDS011;2892;47.592;7.688;2024-03-02T12:19:30;3.00;;;1.80;;
5734;SDS011;2892;47.592;7.688;2024-03-02T12:21:57;2.10;;;1.50;;
5734;SDS011;2892;47.592;7.688;2024-03-02T12:24:23;3.03;;;1.87;;
5734;SDS011;2892;47.592;7.688;2024-03-02T12:26:52;2.90;;;1.97;;
5734;SDS011;2892;47.592;7.688;2024-03-02T12:29:19;2.40;;;1.90;;
5734;SDS011;2892;47.592;7.688;2024-03-02T12:31:45;7.40;;;2.30;;
5734;SDS011;2892;47.592;7.688;2024-03-02T12:34:11;2.03;;;1.60;;
5734;SDS011;2892;47.592;7.688;2024-03-02T12:36:38;6.00;;;2.27;;
5734;SDS011;2892;47.592;7.688;2024-03-02T12:39:04;2.50;;;1.80;;
5734;SDS011;2892;47.592;7.688;2024-03-02T12:41:30;3.00;;;2.30;;
5734;SDS011;2892;47.592;7.688;2024-03-02T12:43:55;2.77;;;2.17;;
5734;SDS011;2892;47.592;7.688;2024-03-02T12:46:21;2.50;;;1.77;;
5734;SDS011;2892;47.592;7.688;2024-03-02T12:48:47;2.23;;;1.63;;
5734;SDS011;2892;47.592;7.688;2024-03-02T12:51:12;3.13;;;2.23;;
5734;SDS011;2892;47.592;7.688;2024-03-02T12:53:38;2.17;;;1.63;;
5734;SDS011;2892;47.592;7.688;2024-03-02T12:56:03;2.43;;;1.80;;
5734;SDS011;2892;47.592;7.688;2024-03-02T12:58:29;7.70;;;2.37;;
5734;SDS011;2892;47.592;7.688;2024-03-02T13:01:11;2.80;;;1.97;;
5734;SDS011;2892;47.592;7.688;2024-03-02T13:03:37;2.93;;;2.03;;
5734;SDS011;2892;47.592;7.688;2024-03-02T13:06:04;3.07;;;2.10;;
5734;SDS011;2892;47.592;7.688;2024-03-02T13:08:30;3.87;;;2.47;;
5734;SDS011;2892;47.592;7.688;2024-03-02T13:10:56;3.93;;;1.80;;
5734;SDS011;2892;47.592;7.688;2024-03-02T13:13:21;2.70;;;1.93;;
5734;SDS011;2892;47.592;7.688;2024-03-02T13:15:47;3.23;;;2.17;;
5734;SDS011;2892;47.592;7.688;2024-03-02T13:18:12;2.00;;;1.80;;
5734;SDS011;2892;47.592;7.688;2024-03-02T13:20:38;3.87;;;2.37;;
5734;SDS011;2892;47.592;7.688;2024-03-02T13:23:03;3.00;;;2.10;;
5734;SDS011;2892;47.592;7.688;2024-03-02T13:25:29;3.80;;;2.30;;
5734;SDS011;2892;47.592;7.688;2024-03-02T13:27:54;3.30;;;1.80;;
5734;SDS011;2892;47.592;7.688;2024-03-02T13:30:20;3.43;;;1.63;;
5734;SDS011;2892;47.592;7.688;2024-03-02T13:32:45;3.07;;;1.87;;
5734;SDS011;2892;47.592;7.688;2024-03-02T13:35:11;3.93;;;1.60;;
5734;SDS011;2892;47.592;7.688;2024-03-02T13:37:36;2.77;;;1.87;;
5734;SDS011;2892;47.592;7.688;2024-03-02T13:40:02;2.93;;;1.80;;
5734;SDS011;2892;47.592;7.688;2024-03-02T13:42:27;2.50;;;1.67;;
5734;SDS011;2892;47.592;7.688;2024-03-02T13:44:53;3.33;;;2.33;;
5734;SDS011;2892;47.592;7.688;2024-03-02T13:47:18;2.93;;;2.03;;
5734;SDS011;2892;47.592;7.688;2024-03-02T13:49:44;5.30;;;2.27;;
5734;SDS011;2892;47.592;7.688;2024-03-02T13:52:09;3.30;;;2.47;;
5734;SDS011;2892;47.592;7.688;2024-03-02T13:54:36;2.60;;;2.23;;
5734;SDS011;2892;47.592;7.688;2024-03-02T13:57:02;4.37;;;2.47;;
5734;SDS011;2892;47.592;7.688;2024-03-02T13:59:28;3.93;;;2.00;;
5734;SDS011;2892;47.592;7.688;2024-03-02T14:01:53;2.27;;;2.03;;
5734;SDS011;2892;47.592;7.688;2024-03-02T14:04:19;3.00;;;1.90;;
5734;SDS011;2892;47.592;7.688;2024-03-02T14:06:44;2.93;;;1.93;;
5734;SDS011;2892;47.592;7.688;2024-03-02T14:09:10;3.07;;;1.70;;
5734;SDS011;2892;47.592;7.688;2024-03-02T14:11:35;2.10;;;1.90;;
5734;SDS011;2892;47.592;7.688;2024-03-02T14:14:01;4.40;;;1.90;;
5734;SDS011;2892;47.592;7.688;2024-03-02T14:16:27;2.20;;;2.00;;
5734;SDS011;2892;47.592;7.688;2024-03-02T14:18:52;3.47;;;2.30;;
5734;SDS011;2892;47.592;7.688;2024-03-02T14:21:18;4.60;;;1.77;;
5734;SDS011;2892;47.592;7.688;2024-03-02T14:23:43;5.33;;;2.13;;
5734;SDS011;2892;47.592;7.688;2024-03-02T14:26:09;4.00;;;2.30;;
5734;SDS011;2892;47.592;7.688;2024-03-02T14:28:34;2.40;;;1.90;;
5734;SDS011;2892;47.592;7.688;2024-03-02T14:31:00;2.77;;;1.60;;
5734;SDS011;2892;47.592;7.688;2024-03-02T14:33:25;3.13;;;2.07;;
5734;SDS011;2892;47.592;7.688;2024-03-02T14:35:51;7.60;;;2.30;;
5734;SDS011;2892;47.592;7.688;2024-03-02T14:38:16;2.33;;;1.90;;
5734;SDS011;2892;47.592;7.688;2024-03-02T14:40:42;3.10;;;2.40;;
5734;SDS011;2892;47.592;7.688;2024-03-02T14:43:08;2.00;;;1.80;;
5734;SDS011;2892;47.592;7.688;2024-03-02T14:45:33;2.63;;;2.17;;
5734;SDS011;2892;47.592;7.688;2024-03-02T14:47:59;3.13;;;1.73;;
5734;SDS011;2892;47.592;7.688;2024-03-02T14:50:25;1.60;;;1.37;;
5734;SDS011;2892;47.592;7.688;2024-03-02T14:52:51;1.50;;;1.37;;
5734;SDS011;2892;47.592;7.688;2024-03-02T14:55:16;1.47;;;1.17;;
5734;SDS011;2892;47.592;7.688;2024-03-02T14:57:42;2.40;;;1.87;;
5734;SDS011;2892;47.592;7.688;2024-03-02T15:00:07;1.30;;;1.20;;
5734;SDS011;2892;47.592;7.688;2024-03-02T15:02:33;2.70;;;1.53;;
5734;SDS011;2892;47.592;7.688;2024-03-02T15:04:59;2.00;;;1.60;;
5734;SDS011;2892;47.592;7.688;2024-03-02T15:07:25;1.80;;;1.40;;
5734;SDS011;2892;47.592;7.688;2024-03-02T15:09:50;3.83;;;2.03;;
5734;SDS011;2892;47.592;7.688;2024-03-02T15:12:16;1.43;;;1.23;;
5734;SDS011;2892;47.592;7.688;2024-03-02T15:14:41;3.43;;;1.63;;
5734;SDS011;2892;47.592;7.688;2024-03-02T15:17:07;3.03;;;1.30;;
5734;SDS011;2892;47.592;7.688;2024-03-02T15:19:32;2.67;;;1.80;;